sensor_id;sensor_type;location;lat;lon;timestamp;temperature;humidity
71436;SHT31;59251;51.326;12.370;2023-06-14T00:01:46;13.61;72.84
71436;SHT31;59251;51.326;12.370;2023-06-14T00:04:14;13.58;73.08
71436;SHT31;59251;51.326;12.370;2023-06-14T00:06:42;13.51;73.34
71436;SHT31;59251;51.326;12.370;2023-06-14T00:09:10;13.50;73.55
71436;SHT31;59251;51.326;12.370;2023-06-14T00:11:39;13.49;73.52
71436;SHT31;59251;51.326;12.370;2023-06-14T00:14:06;13.44;73.68
71436;SHT31;59251;51.326;12.370;2023-06-14T00:16:33;13.46;73.75
71436;SHT31;59251;51.326;12.370;2023-06-14T00:19:00;13.43;73.88
71436;SHT31;59251;51.326;12.370;2023-06-14T00:21:29;13.37;74.10
71436;SHT31;59251;51.326;12.370;2023-06-14T00:23:55;13.35;74.17
71436;SHT31;59251;51.326;12.370;2023-06-14T00:26:22;13.32;74.25
71436;SHT31;59251;51.326;12.370;2023-06-14T00:28:50;13.35;74.27
71436;SHT31;59251;51.326;12.370;2023-06-14T00:31:17;13.37;74.36
71436;SHT31;59251;51.326;12.370;2023-06-14T00:33:44;13.35;74.55
71436;SHT31;59251;51.326;12.370;2023-06-14T00:36:11;13.35;74.60
71436;SHT31;59251;51.326;12.370;2023-06-14T00:38:39;13.30;74.71
71436;SHT31;59251;51.326;12.370;2023-06-14T00:41:08;13.33;74.71
71436;SHT31;59251;51.326;12.370;2023-06-14T00:43:34;13.29;74.87
71436;SHT31;59251;51.326;12.370;2023-06-14T00:46:02;13.22;75.10
71436;SHT31;59251;51.326;12.370;2023-06-14T00:48:29;13.23;75.16
71436;SHT31;59251;51.326;12.370;2023-06-14T00:50:57;13.16;75.45
71436;SHT31;59251;51.326;12.370;2023-06-14T00:53:26;13.16;75.57
71436;SHT31;59251;51.326;12.370;2023-06-14T00:55:53;13.15;75.70
71436;SHT31;59251;51.326;12.370;2023-06-14T00:58:21;13.15;75.81
71436;SHT31;59251;51.326;12.370;2023-06-14T01:00:48;13.12;75.92
71436;SHT31;59251;51.326;12.370;2023-06-14T01:03:18;13.06;76.19
71436;SHT31;59251;51.326;12.370;2023-06-14T01:05:47;13.08;76.27
71436;SHT31;59251;51.326;12.370;2023-06-14T01:08:21;13.01;76.35
71436;SHT31;59251;51.326;12.370;2023-06-14T01:10:58;12.98;76.47
71436;SHT31;59251;51.326;12.370;2023-06-14T01:13:33;13.01;76.55
71436;SHT31;59251;51.326;12.370;2023-06-14T01:16:01;12.96;76.66
71436;SHT31;59251;51.326;12.370;2023-06-14T01:18:31;12.92;76.88
71436;SHT31;59251;51.326;12.370;2023-06-14T01:21:01;12.89;76.98
71436;SHT31;59251;51.326;12.370;2023-06-14T01:23:32;12.87;77.07
71436;SHT31;59251;51.326;12.370;2023-06-14T01:26:00;12.81;77.39
71436;SHT31;59251;51.326;12.370;2023-06-14T01:28:31;12.81;77.31
71436;SHT31;59251;51.326;12.370;2023-06-14T01:31:01;12.80;77.48
71436;SHT31;59251;51.326;12.370;2023-06-14T01:33:31;12.75;77.60
71436;SHT31;59251;51.326;12.370;2023-06-14T01:35:59;12.69;77.79
71436;SHT31;59251;51.326;12.370;2023-06-14T01:38:31;12.71;78.00
71436;SHT31;59251;51.326;12.370;2023-06-14T01:40:59;12.74;77.88
71436;SHT31;59251;51.326;12.370;2023-06-14T01:43:29;12.74;77.99
71436;SHT31;59251;51.326;12.370;2023-06-14T01:45:57;12.71;78.11
71436;SHT31;59251;51.326;12.370;2023-06-14T01:48:26;12.68;78.17
71436;SHT31;59251;51.326;12.370;2023-06-14T01:50:53;12.64;78.43
71436;SHT31;59251;51.326;12.370;2023-06-14T01:53:20;12.58;78.64
71436;SHT31;59251;51.326;12.370;2023-06-14T01:55:48;12.61;78.72
71436;SHT31;59251;51.326;12.370;2023-06-14T01:58:15;12.57;78.87
71436;SHT31;59251;51.326;12.370;2023-06-14T02:00:42;12.54;79.04
71436;SHT31;59251;51.326;12.370;2023-06-14T02:03:10;12.48;79.28
71436;SHT31;59251;51.326;12.370;2023-06-14T02:05:38;12.45;79.33
71436;SHT31;59251;51.326;12.370;2023-06-14T02:08:05;12.36;79.64
71436;SHT31;59251;51.326;12.370;2023-06-14T02:10:32;12.36;79.63
71436;SHT31;59251;51.326;12.370;2023-06-14T02:13:00;12.30;79.86
71436;SHT31;59251;51.326;12.370;2023-06-14T02:15:27;12.26;80.10
71436;SHT31;59251;51.326;12.370;2023-06-14T02:18:00;12.16;80.38
71436;SHT31;59251;51.326;12.370;2023-06-14T02:20:27;12.16;80.50
71436;SHT31;59251;51.326;12.370;2023-06-14T02:22:56;12.17;80.45
71436;SHT31;59251;51.326;12.370;2023-06-14T02:25:22;12.20;80.55
71436;SHT31;59251;51.326;12.370;2023-06-14T02:27:49;12.17;80.63
71436;SHT31;59251;51.326;12.370;2023-06-14T02:30:17;12.13;80.68
71436;SHT31;59251;51.326;12.370;2023-06-14T02:32:45;12.10;80.87
71436;SHT31;59251;51.326;12.370;2023-06-14T02:35:13;12.09;81.10
71436;SHT31;59251;51.326;12.370;2023-06-14T02:37:40;12.10;81.05
71436;SHT31;59251;51.326;12.370;2023-06-14T02:40:08;12.12;80.97
71436;SHT31;59251;51.326;12.370;2023-06-14T02:42:35;12.07;81.09
71436;SHT31;59251;51.326;12.370;2023-06-14T02:45:04;12.10;81.26
71436;SHT31;59251;51.326;12.370;2023-06-14T02:47:32;11.97;81.44
71436;SHT31;59251;51.326;12.370;2023-06-14T02:49:59;11.97;81.64
71436;SHT31;59251;51.326;12.370;2023-06-14T02:52:25;11.92;81.86
71436;SHT31;59251;51.326;12.370;2023-06-14T02:54:52;11.90;81.90
71436;SHT31;59251;51.326;12.370;2023-06-14T02:57:20;11.87;82.16
71436;SHT31;59251;51.326;12.370;2023-06-14T02:59:46;11.79;82.36
71436;SHT31;59251;51.326;12.370;2023-06-14T03:02:13;11.75;82.51
71436;SHT31;59251;51.326;12.370;2023-06-14T03:04:42;11.76;82.40
71436;SHT31;59251;51.326;12.370;2023-06-14T03:07:13;11.78;82.49
71436;SHT31;59251;51.326;12.370;2023-06-14T03:09:46;11.79;82.37
71436;SHT31;59251;51.326;12.370;2023-06-14T03:12:13;11.75;82.64
71436;SHT31;59251;51.326;12.370;2023-06-14T03:14:41;11.68;82.84
71436;SHT31;59251;51.326;12.370;2023-06-14T03:17:11;11.66;82.96
71436;SHT31;59251;51.326;12.370;2023-06-14T03:19:39;11.69;83.05
71436;SHT31;59251;51.326;12.370;2023-06-14T03:22:08;11.65;83.10
71436;SHT31;59251;51.326;12.370;2023-06-14T03:24:37;11.62;83.16
71436;SHT31;59251;51.326;12.370;2023-06-14T03:27:13;11.61;83.26
71436;SHT31;59251;51.326;12.370;2023-06-14T03:29:43;11.61;83.30
71436;SHT31;59251;51.326;12.370;2023-06-14T03:32:10;11.61;83.30
71436;SHT31;59251;51.326;12.370;2023-06-14T03:34:40;11.65;83.15
71436;SHT31;59251;51.326;12.370;2023-06-14T03:37:13;11.61;83.47
71436;SHT31;59251;51.326;12.370;2023-06-14T03:39:40;11.68;83.32
71436;SHT31;59251;51.326;12.370;2023-06-14T03:42:14;11.62;83.40
71436;SHT31;59251;51.326;12.370;2023-06-14T03:44:43;11.71;83.31
71436;SHT31;59251;51.326;12.370;2023-06-14T03:47:10;11.65;83.34
71436;SHT31;59251;51.326;12.370;2023-06-14T03:49:37;11.72;83.23
71436;SHT31;59251;51.326;12.370;2023-06-14T03:52:04;11.71;83.14
71436;SHT31;59251;51.326;12.370;2023-06-14T03:54:33;11.64;83.43
71436;SHT31;59251;51.326;12.370;2023-06-14T03:57:00;11.69;83.27
71436;SHT31;59251;51.326;12.370;2023-06-14T03:59:27;11.71;83.25
71436;SHT31;59251;51.326;12.370;2023-06-14T04:01:54;11.69;83.28
71436;SHT31;59251;51.326;12.370;2023-06-14T04:04:21;11.75;83.29
71436;SHT31;59251;51.326;12.370;2023-06-14T04:06:55;11.78;83.03
71436;SHT31;59251;51.326;12.370;2023-06-14T04:09:23;11.83;82.97
71436;SHT31;59251;51.326;12.370;2023-06-14T04:11:52;11.87;82.92
71436;SHT31;59251;51.326;12.370;2023-06-14T04:14:19;11.96;82.69
71436;SHT31;59251;51.326;12.370;2023-06-14T04:16:46;12.02;82.57
71436;SHT31;59251;51.326;12.370;2023-06-14T04:19:15;12.14;82.22
71436;SHT31;59251;51.326;12.370;2023-06-14T04:21:42;12.16;82.17
71436;SHT31;59251;51.326;12.370;2023-06-14T04:24:09;12.20;82.05
71436;SHT31;59251;51.326;12.370;2023-06-14T04:26:39;12.23;81.93
71436;SHT31;59251;51.326;12.370;2023-06-14T04:29:07;12.36;81.85
71436;SHT31;59251;51.326;12.370;2023-06-14T04:31:40;12.44;81.71
71436;SHT31;59251;51.326;12.370;2023-06-14T04:34:09;12.43;81.67
71436;SHT31;59251;51.326;12.370;2023-06-14T04:36:43;12.36;81.97
71436;SHT31;59251;51.326;12.370;2023-06-14T04:39:15;12.44;81.53
71436;SHT31;59251;51.326;12.370;2023-06-14T04:41:43;12.77;80.77
71436;SHT31;59251;51.326;12.370;2023-06-14T04:44:11;13.06;79.70
71436;SHT31;59251;51.326;12.370;2023-06-14T04:46:43;12.82;80.41
71436;SHT31;59251;51.326;12.370;2023-06-14T04:49:15;12.93;80.31
71436;SHT31;59251;51.326;12.370;2023-06-14T04:51:42;12.91;80.40
71436;SHT31;59251;51.326;12.370;2023-06-14T04:54:09;13.06;80.12
71436;SHT31;59251;51.326;12.370;2023-06-14T04:56:40;13.22;79.51
71436;SHT31;59251;51.326;12.370;2023-06-14T04:59:08;13.32;79.39
71436;SHT31;59251;51.326;12.370;2023-06-14T05:01:38;13.44;78.89
71436;SHT31;59251;51.326;12.370;2023-06-14T05:04:05;13.40;79.19
71436;SHT31;59251;51.326;12.370;2023-06-14T05:06:31;13.58;78.52
71436;SHT31;59251;51.326;12.370;2023-06-14T05:08:58;13.81;77.92
71436;SHT31;59251;51.326;12.370;2023-06-14T05:11:25;13.78;78.08
71436;SHT31;59251;51.326;12.370;2023-06-14T05:13:52;13.63;78.41
71436;SHT31;59251;51.326;12.370;2023-06-14T05:16:18;13.61;78.56
71436;SHT31;59251;51.326;12.370;2023-06-14T05:18:47;13.81;77.97
71436;SHT31;59251;51.326;12.370;2023-06-14T05:21:13;13.97;77.63
71436;SHT31;59251;51.326;12.370;2023-06-14T05:23:42;13.97;77.49
71436;SHT31;59251;51.326;12.370;2023-06-14T05:26:10;13.78;78.08
71436;SHT31;59251;51.326;12.370;2023-06-14T05:28:36;13.97;77.47
71436;SHT31;59251;51.326;12.370;2023-06-14T05:31:03;14.30;77.04
71436;SHT31;59251;51.326;12.370;2023-06-14T05:33:30;14.19;77.01
71436;SHT31;59251;51.326;12.370;2023-06-14T05:35:58;14.30;76.66
71436;SHT31;59251;51.326;12.370;2023-06-14T05:38:24;14.32;76.51
71436;SHT31;59251;51.326;12.370;2023-06-14T05:40:51;14.30;76.30
71436;SHT31;59251;51.326;12.370;2023-06-14T05:43:19;14.53;76.16
71436;SHT31;59251;51.326;12.370;2023-06-14T05:45:46;14.47;75.82
71436;SHT31;59251;51.326;12.370;2023-06-14T05:48:12;14.43;76.44
71436;SHT31;59251;51.326;12.370;2023-06-14T05:50:39;14.47;76.25
71436;SHT31;59251;51.326;12.370;2023-06-14T05:53:07;14.74;75.54
71436;SHT31;59251;51.326;12.370;2023-06-14T05:55:34;14.66;75.38
71436;SHT31;59251;51.326;12.370;2023-06-14T05:58:00;14.67;75.79
71436;SHT31;59251;51.326;12.370;2023-06-14T06:00:27;14.62;75.93
71436;SHT31;59251;51.326;12.370;2023-06-14T06:02:54;14.90;75.12
71436;SHT31;59251;51.326;12.370;2023-06-14T06:05:22;14.87;75.10
71436;SHT31;59251;51.326;12.370;2023-06-14T06:07:49;14.84;75.42
71436;SHT31;59251;51.326;12.370;2023-06-14T06:10:17;15.02;74.63
71436;SHT31;59251;51.326;12.370;2023-06-14T06:12:44;15.25;74.02
71436;SHT31;59251;51.326;12.370;2023-06-14T06:15:12;15.31;73.87
71436;SHT31;59251;51.326;12.370;2023-06-14T06:17:40;15.02;74.46
71436;SHT31;59251;51.326;12.370;2023-06-14T06:20:07;15.12;74.58
71436;SHT31;59251;51.326;12.370;2023-06-14T06:22:35;15.49;73.79
71436;SHT31;59251;51.326;12.370;2023-06-14T06:25:01;15.21;74.23
71436;SHT31;59251;51.326;12.370;2023-06-14T06:27:30;15.49;73.29
71436;SHT31;59251;51.326;12.370;2023-06-14T06:29:56;15.18;74.15
71436;SHT31;59251;51.326;12.370;2023-06-14T06:32:23;15.39;74.21
71436;SHT31;59251;51.326;12.370;2023-06-14T06:34:50;15.36;74.03
71436;SHT31;59251;51.326;12.370;2023-06-14T06:37:17;15.65;73.51
71436;SHT31;59251;51.326;12.370;2023-06-14T06:39:44;15.69;73.08
71436;SHT31;59251;51.326;12.370;2023-06-14T06:42:12;15.94;72.59
71436;SHT31;59251;51.326;12.370;2023-06-14T06:44:42;15.94;71.97
71436;SHT31;59251;51.326;12.370;2023-06-14T06:47:09;15.98;72.21
71436;SHT31;59251;51.326;12.370;2023-06-14T06:49:36;15.86;72.20
71436;SHT31;59251;51.326;12.370;2023-06-14T06:52:05;16.18;71.76
71436;SHT31;59251;51.326;12.370;2023-06-14T06:54:32;16.00;71.65
71436;SHT31;59251;51.326;12.370;2023-06-14T06:56:59;16.22;71.28
71436;SHT31;59251;51.326;12.370;2023-06-14T06:59:27;16.06;71.82
71436;SHT31;59251;51.326;12.370;2023-06-14T07:01:55;16.35;71.42
71436;SHT31;59251;51.326;12.370;2023-06-14T07:04:21;16.54;70.92
71436;SHT31;59251;51.326;12.370;2023-06-14T07:06:48;16.59;70.46
71436;SHT31;59251;51.326;12.370;2023-06-14T07:09:15;16.76;70.37
71436;SHT31;59251;51.326;12.370;2023-06-14T07:11:44;16.52;70.05
71436;SHT31;59251;51.326;12.370;2023-06-14T07:14:10;16.89;69.63
71436;SHT31;59251;51.326;12.370;2023-06-14T07:16:38;17.14;68.91
71436;SHT31;59251;51.326;12.370;2023-06-14T07:19:07;17.26;68.41
71436;SHT31;59251;51.326;12.370;2023-06-14T07:21:34;17.07;68.07
71436;SHT31;59251;51.326;12.370;2023-06-14T07:24:04;17.35;67.45
71436;SHT31;59251;51.326;12.370;2023-06-14T07:26:31;17.61;66.58
71436;SHT31;59251;51.326;12.370;2023-06-14T07:28:58;17.75;65.52
71436;SHT31;59251;51.326;12.370;2023-06-14T07:31:25;17.74;65.71
71436;SHT31;59251;51.326;12.370;2023-06-14T07:33:52;17.58;66.58
71436;SHT31;59251;51.326;12.370;2023-06-14T07:36:21;17.90;65.10
71436;SHT31;59251;51.326;12.370;2023-06-14T07:38:48;18.05;64.49
71436;SHT31;59251;51.326;12.370;2023-06-14T07:41:15;18.14;64.19
71436;SHT31;59251;51.326;12.370;2023-06-14T07:43:42;18.03;64.81
71436;SHT31;59251;51.326;12.370;2023-06-14T07:46:09;17.93;63.73
71436;SHT31;59251;51.326;12.370;2023-06-14T07:48:35;18.27;63.64
71436;SHT31;59251;51.326;12.370;2023-06-14T07:51:02;18.09;64.07
71436;SHT31;59251;51.326;12.370;2023-06-14T07:53:31;18.37;63.51
71436;SHT31;59251;51.326;12.370;2023-06-14T07:55:58;18.44;63.80
71436;SHT31;59251;51.326;12.370;2023-06-14T07:58:25;18.13;64.61
71436;SHT31;59251;51.326;12.370;2023-06-14T08:00:52;18.33;63.86
71436;SHT31;59251;51.326;12.370;2023-06-14T08:03:19;18.23;63.16
71436;SHT31;59251;51.326;12.370;2023-06-14T08:05:47;18.19;63.86
71436;SHT31;59251;51.326;12.370;2023-06-14T08:08:14;18.72;63.18
71436;SHT31;59251;51.326;12.370;2023-06-14T08:10:43;18.58;62.69
71436;SHT31;59251;51.326;12.370;2023-06-14T08:13:09;18.61;62.85
71436;SHT31;59251;51.326;12.370;2023-06-14T08:15:36;18.92;62.86
71436;SHT31;59251;51.326;12.370;2023-06-14T08:18:03;19.19;61.43
71436;SHT31;59251;51.326;12.370;2023-06-14T08:20:30;18.99;61.10
71436;SHT31;59251;51.326;12.370;2023-06-14T08:22:57;19.01;60.75
71436;SHT31;59251;51.326;12.370;2023-06-14T08:25:24;18.94;61.34
71436;SHT31;59251;51.326;12.370;2023-06-14T08:27:52;18.87;60.63
71436;SHT31;59251;51.326;12.370;2023-06-14T08:30:19;18.58;61.47
71436;SHT31;59251;51.326;12.370;2023-06-14T08:32:46;18.71;61.75
71436;SHT31;59251;51.326;12.370;2023-06-14T08:35:12;18.72;61.16
71436;SHT31;59251;51.326;12.370;2023-06-14T08:37:40;18.78;60.73
71436;SHT31;59251;51.326;12.370;2023-06-14T08:40:17;18.84;60.60
71436;SHT31;59251;51.326;12.370;2023-06-14T08:42:44;19.08;59.94
71436;SHT31;59251;51.326;12.370;2023-06-14T08:45:13;18.98;60.53
71436;SHT31;59251;51.326;12.370;2023-06-14T08:47:40;18.98;60.70
71436;SHT31;59251;51.326;12.370;2023-06-14T08:50:08;19.36;59.58
71436;SHT31;59251;51.326;12.370;2023-06-14T08:52:38;19.60;58.68
71436;SHT31;59251;51.326;12.370;2023-06-14T08:55:06;19.74;58.16
71436;SHT31;59251;51.326;12.370;2023-06-14T08:57:35;19.74;58.09
71436;SHT31;59251;51.326;12.370;2023-06-14T09:00:04;19.71;57.33
71436;SHT31;59251;51.326;12.370;2023-06-14T09:02:38;19.90;57.49
71436;SHT31;59251;51.326;12.370;2023-06-14T09:05:09;20.05;57.64
71436;SHT31;59251;51.326;12.370;2023-06-14T09:07:36;20.02;57.36
71436;SHT31;59251;51.326;12.370;2023-06-14T09:10:07;20.02;56.78
71436;SHT31;59251;51.326;12.370;2023-06-14T09:12:35;19.77;56.10
71436;SHT31;59251;51.326;12.370;2023-06-14T09:15:02;19.73;56.06
71436;SHT31;59251;51.326;12.370;2023-06-14T09:17:32;19.84;55.73
71436;SHT31;59251;51.326;12.370;2023-06-14T09:20:00;20.42;55.27
71436;SHT31;59251;51.326;12.370;2023-06-14T09:22:30;20.09;55.34
71436;SHT31;59251;51.326;12.370;2023-06-14T09:24:57;20.12;55.15
71436;SHT31;59251;51.326;12.370;2023-06-14T09:27:25;20.40;54.32
71436;SHT31;59251;51.326;12.370;2023-06-14T09:29:52;20.60;53.62
71436;SHT31;59251;51.326;12.370;2023-06-14T09:32:18;20.86;53.19
71436;SHT31;59251;51.326;12.370;2023-06-14T09:34:45;20.55;53.03
71436;SHT31;59251;51.326;12.370;2023-06-14T09:37:26;21.00;53.21
71436;SHT31;59251;51.326;12.370;2023-06-14T09:39:53;20.79;54.26
71436;SHT31;59251;51.326;12.370;2023-06-14T09:42:19;20.72;53.63
71436;SHT31;59251;51.326;12.370;2023-06-14T09:44:47;21.17;53.00
71436;SHT31;59251;51.326;12.370;2023-06-14T09:47:15;21.18;52.42
71436;SHT31;59251;51.326;12.370;2023-06-14T09:49:42;21.41;50.96
71436;SHT31;59251;51.326;12.370;2023-06-14T09:52:10;21.37;50.40
71436;SHT31;59251;51.326;12.370;2023-06-14T09:54:41;20.98;51.80
71436;SHT31;59251;51.326;12.370;2023-06-14T09:57:10;21.25;52.15
71436;SHT31;59251;51.326;12.370;2023-06-14T09:59:40;20.36;52.43
71436;SHT31;59251;51.326;12.370;2023-06-14T10:02:11;21.12;51.94
71436;SHT31;59251;51.326;12.370;2023-06-14T10:04:43;21.31;51.07
71436;SHT31;59251;51.326;12.370;2023-06-14T10:07:14;20.70;51.89
71436;SHT31;59251;51.326;12.370;2023-06-14T10:09:44;21.43;51.44
71436;SHT31;59251;51.326;12.370;2023-06-14T10:12:16;21.46;51.81
71436;SHT31;59251;51.326;12.370;2023-06-14T10:14:47;21.61;50.91
71436;SHT31;59251;51.326;12.370;2023-06-14T10:17:22;21.72;49.56
71436;SHT31;59251;51.326;12.370;2023-06-14T10:19:55;21.86;49.79
71436;SHT31;59251;51.326;12.370;2023-06-14T10:22:29;22.10;49.13
71436;SHT31;59251;51.326;12.370;2023-06-14T10:24:59;21.94;49.79
71436;SHT31;59251;51.326;12.370;2023-06-14T10:27:26;21.89;49.64
71436;SHT31;59251;51.326;12.370;2023-06-14T10:30:03;21.85;49.15
71436;SHT31;59251;51.326;12.370;2023-06-14T10:32:31;21.66;50.48
71436;SHT31;59251;51.326;12.370;2023-06-14T10:35:00;21.80;50.84
71436;SHT31;59251;51.326;12.370;2023-06-14T10:37:27;21.38;51.44
71436;SHT31;59251;51.326;12.370;2023-06-14T10:39:54;21.41;52.14
71436;SHT31;59251;51.326;12.370;2023-06-14T10:42:27;21.65;52.32
71436;SHT31;59251;51.326;12.370;2023-06-14T10:44:55;21.62;52.36
71436;SHT31;59251;51.326;12.370;2023-06-14T10:47:24;21.66;52.76
71436;SHT31;59251;51.326;12.370;2023-06-14T10:49:53;21.70;51.97
71436;SHT31;59251;51.326;12.370;2023-06-14T10:52:25;21.18;52.19
71436;SHT31;59251;51.326;12.370;2023-06-14T10:55:02;21.21;52.55
71436;SHT31;59251;51.326;12.370;2023-06-14T10:57:33;21.41;52.10
71436;SHT31;59251;51.326;12.370;2023-06-14T11:00:01;21.10;52.05
71436;SHT31;59251;51.326;12.370;2023-06-14T11:03:04;21.21;52.22
71436;SHT31;59251;51.326;12.370;2023-06-14T11:05:48;21.34;52.33
71436;SHT31;59251;51.326;12.370;2023-06-14T11:08:35;21.49;52.21
71436;SHT31;59251;51.326;12.370;2023-06-14T11:11:06;21.76;51.27
71436;SHT31;59251;51.326;12.370;2023-06-14T11:13:37;21.27;52.25
71436;SHT31;59251;51.326;12.370;2023-06-14T11:16:10;21.61;52.25
71436;SHT31;59251;51.326;12.370;2023-06-14T11:18:37;21.73;52.10
71436;SHT31;59251;51.326;12.370;2023-06-14T11:21:04;22.24;51.48
71436;SHT31;59251;51.326;12.370;2023-06-14T11:23:31;22.22;51.70
71436;SHT31;59251;51.326;12.370;2023-06-14T11:25:57;22.21;51.13
71436;SHT31;59251;51.326;12.370;2023-06-14T11:28:24;22.62;50.52
71436;SHT31;59251;51.326;12.370;2023-06-14T11:31:01;23.02;50.17
71436;SHT31;59251;51.326;12.370;2023-06-14T11:33:28;22.65;50.70
71436;SHT31;59251;51.326;12.370;2023-06-14T11:35:54;22.68;50.67
71436;SHT31;59251;51.326;12.370;2023-06-14T11:38:21;23.74;49.27
71436;SHT31;59251;51.326;12.370;2023-06-14T11:40:48;24.47;47.31
71436;SHT31;59251;51.326;12.370;2023-06-14T11:43:14;24.36;47.03
71436;SHT31;59251;51.326;12.370;2023-06-14T11:45:42;24.41;47.34
71436;SHT31;59251;51.326;12.370;2023-06-14T11:48:10;25.66;45.52
71436;SHT31;59251;51.326;12.370;2023-06-14T11:50:38;25.11;46.12
71436;SHT31;59251;51.326;12.370;2023-06-14T11:53:05;25.01;46.31
71436;SHT31;59251;51.326;12.370;2023-06-14T11:55:36;25.35;45.57
71436;SHT31;59251;51.326;12.370;2023-06-14T11:58:03;24.71;46.62
71436;SHT31;59251;51.326;12.370;2023-06-14T12:00:30;25.72;44.72
71436;SHT31;59251;51.326;12.370;2023-06-14T12:02:57;25.74;44.33
71436;SHT31;59251;51.326;12.370;2023-06-14T12:05:25;26.39;43.38
71436;SHT31;59251;51.326;12.370;2023-06-14T12:07:58;25.91;43.90
71436;SHT31;59251;51.326;12.370;2023-06-14T12:10:26;27.22;41.68
71436;SHT31;59251;51.326;12.370;2023-06-14T12:12:56;27.27;41.94
71436;SHT31;59251;51.326;12.370;2023-06-14T12:15:23;27.44;41.62
71436;SHT31;59251;51.326;12.370;2023-06-14T12:17:50;27.72;41.48
71436;SHT31;59251;51.326;12.370;2023-06-14T12:20:18;26.07;43.78
71436;SHT31;59251;51.326;12.370;2023-06-14T12:22:50;27.29;42.86
71436;SHT31;59251;51.326;12.370;2023-06-14T12:25:26;26.04;44.08
71436;SHT31;59251;51.326;12.370;2023-06-14T12:27:53;27.33;42.85
71436;SHT31;59251;51.326;12.370;2023-06-14T12:30:20;27.33;41.10
71436;SHT31;59251;51.326;12.370;2023-06-14T12:32:47;28.64;38.28
71436;SHT31;59251;51.326;12.370;2023-06-14T12:35:14;27.02;40.78
71436;SHT31;59251;51.326;12.370;2023-06-14T12:37:41;26.59;42.50
71436;SHT31;59251;51.326;12.370;2023-06-14T12:40:10;26.49;43.91
71436;SHT31;59251;51.326;12.370;2023-06-14T12:42:37;25.72;45.58
71436;SHT31;59251;51.326;12.370;2023-06-14T12:45:05;24.74;47.48
71436;SHT31;59251;51.326;12.370;2023-06-14T12:47:31;23.71;49.11
71436;SHT31;59251;51.326;12.370;2023-06-14T12:49:58;22.95;51.53
71436;SHT31;59251;51.326;12.370;2023-06-14T12:52:25;23.70;50.40
71436;SHT31;59251;51.326;12.370;2023-06-14T12:54:51;23.65;50.40
71436;SHT31;59251;51.326;12.370;2023-06-14T12:57:19;22.75;52.36
71436;SHT31;59251;51.326;12.370;2023-06-14T12:59:46;22.31;53.26
71436;SHT31;59251;51.326;12.370;2023-06-14T13:02:13;22.85;52.58
71436;SHT31;59251;51.326;12.370;2023-06-14T13:04:40;22.34;53.41
71436;SHT31;59251;51.326;12.370;2023-06-14T13:07:07;22.41;53.34
71436;SHT31;59251;51.326;12.370;2023-06-14T13:09:34;22.86;52.36
71436;SHT31;59251;51.326;12.370;2023-06-14T13:12:01;22.98;52.22
71436;SHT31;59251;51.326;12.370;2023-06-14T13:14:29;22.48;52.86
71436;SHT31;59251;51.326;12.370;2023-06-14T13:16:56;22.17;53.68
71436;SHT31;59251;51.326;12.370;2023-06-14T13:19:23;22.21;53.31
71436;SHT31;59251;51.326;12.370;2023-06-14T13:21:50;22.17;53.57
71436;SHT31;59251;51.326;12.370;2023-06-14T13:24:17;22.11;53.76
71436;SHT31;59251;51.326;12.370;2023-06-14T13:26:43;22.68;52.75
71436;SHT31;59251;51.326;12.370;2023-06-14T13:29:10;22.62;53.09
71436;SHT31;59251;51.326;12.370;2023-06-14T13:31:38;22.71;52.71
71436;SHT31;59251;51.326;12.370;2023-06-14T13:34:05;22.88;52.24
71436;SHT31;59251;51.326;12.370;2023-06-14T13:36:32;23.02;51.93
71436;SHT31;59251;51.326;12.370;2023-06-14T13:38:59;22.86;53.12
71436;SHT31;59251;51.326;12.370;2023-06-14T13:41:27;22.49;53.69
71436;SHT31;59251;51.326;12.370;2023-06-14T13:43:57;22.73;53.27
71436;SHT31;59251;51.326;12.370;2023-06-14T13:46:25;23.51;51.80
71436;SHT31;59251;51.326;12.370;2023-06-14T13:48:53;23.24;52.08
71436;SHT31;59251;51.326;12.370;2023-06-14T13:51:19;23.82;51.21
71436;SHT31;59251;51.326;12.370;2023-06-14T13:53:47;23.43;52.07
71436;SHT31;59251;51.326;12.370;2023-06-14T13:56:14;23.68;52.04
71436;SHT31;59251;51.326;12.370;2023-06-14T13:58:41;23.00;53.33
71436;SHT31;59251;51.326;12.370;2023-06-14T14:01:08;22.57;54.33
71436;SHT31;59251;51.326;12.370;2023-06-14T14:03:35;22.81;53.85
71436;SHT31;59251;51.326;12.370;2023-06-14T14:06:04;22.72;53.92
71436;SHT31;59251;51.326;12.370;2023-06-14T14:08:31;22.34;55.27
71436;SHT31;59251;51.326;12.370;2023-06-14T14:10:58;22.72;54.39
71436;SHT31;59251;51.326;12.370;2023-06-14T14:13:24;22.28;55.87
71436;SHT31;59251;51.326;12.370;2023-06-14T14:15:51;22.38;55.32
71436;SHT31;59251;51.326;12.370;2023-06-14T14:18:18;23.27;53.79
71436;SHT31;59251;51.326;12.370;2023-06-14T14:20:46;22.62;53.91
71436;SHT31;59251;51.326;12.370;2023-06-14T14:23:14;22.21;54.60
71436;SHT31;59251;51.326;12.370;2023-06-14T14:25:41;22.75;53.87
71436;SHT31;59251;51.326;12.370;2023-06-14T14:28:07;23.61;52.78
71436;SHT31;59251;51.326;12.370;2023-06-14T14:30:34;25.69;48.28
71436;SHT31;59251;51.326;12.370;2023-06-14T14:33:05;27.98;44.34
71436;SHT31;59251;51.326;12.370;2023-06-14T14:35:31;27.77;44.46
71436;SHT31;59251;51.326;12.370;2023-06-14T14:37:58;27.30;45.49
71436;SHT31;59251;51.326;12.370;2023-06-14T14:40:26;26.89;46.09
71436;SHT31;59251;51.326;12.370;2023-06-14T14:42:53;25.29;48.04
71436;SHT31;59251;51.326;12.370;2023-06-14T14:45:19;25.53;48.13
71436;SHT31;59251;51.326;12.370;2023-06-14T14:47:46;24.76;50.12
71436;SHT31;59251;51.326;12.370;2023-06-14T14:50:13;24.10;51.55
71436;SHT31;59251;51.326;12.370;2023-06-14T14:52:40;23.92;51.55
71436;SHT31;59251;51.326;12.370;2023-06-14T14:55:07;24.46;50.35
71436;SHT31;59251;51.326;12.370;2023-06-14T14:57:35;23.91;51.30
71436;SHT31;59251;51.326;12.370;2023-06-14T15:00:03;23.84;51.51
71436;SHT31;59251;51.326;12.370;2023-06-14T15:02:31;24.33;51.41
71436;SHT31;59251;51.326;12.370;2023-06-14T15:04:57;23.68;51.44
71436;SHT31;59251;51.326;12.370;2023-06-14T15:07:26;23.79;51.41
71436;SHT31;59251;51.326;12.370;2023-06-14T15:09:53;24.39;50.16
71436;SHT31;59251;51.326;12.370;2023-06-14T15:12:19;25.69;47.92
71436;SHT31;59251;51.326;12.370;2023-06-14T15:14:50;27.44;45.23
71436;SHT31;59251;51.326;12.370;2023-06-14T15:17:17;27.86;44.50
71436;SHT31;59251;51.326;12.370;2023-06-14T15:19:44;29.25;42.17
71436;SHT31;59251;51.326;12.370;2023-06-14T15:22:11;28.90;43.02